Red Rock, Canada
Current Conditions -  °F | °C
As of 3:00 PM on Tuesday 27 Jan 2015 (Local Time) from CYXS Reporting Station
Overcast Overcast  
Wind Chill: 36°   Ceiling: 12000
Heat Index: 43°   Visibility: 9mi
Dew Point: 30°   Wind: 13mph
Humidity: 61%   Direction: 220°SW
Pressure: 29.89"   Gusts: 21mph
Location:  53.67°N, 122.65°W
Report Text: CYXS 272300Z AUTO 22011G18KT 9SM FEW050 SCT070 SCT100 OVC120 06/M01 A2989 RMK SLP150
Loading
Personal Weather Stations






























Interactive Weather Map New forecast layout! Learn more

10-Day Weather Forecast

Advertisements
Track Severe Weather on mobile